»·PEaware :: N973SE KSBP-KOXR

N973SE :: KSBP-KOXR

FLIGHT INFORMATION

Flight Status: Arrived
Operator: Privately registered:
United States
More flights under this callsign
Pilot: Stig E. (4778)
Aircraft: CESSNA 310
(C310)
More flights by this aircraft type
Origin: KSBP San Luis Co Regl
United States
Destination: KOXR Oxnard
United States
More flights between these airports :: More routes between these airports
Route: WYNNR3 RZS
File this flight plan on PilotEdge
Remarks:
Altitude:
(Current/Filed)
11,500ft
Speed:
(Current/Filed)
170kts
Departed: 03-Feb-19 11:03 PM
Arrived: 03-Feb-19 11:48 PM
Distance/Time
Traveled:
166nm/0:45
Distance/Time
To Go:
Arrived

Flight Plot

Page will automatically refresh every two minutes.

Flight plan parsing failed; only flown route is shown


Map Options




Map Legend


Flown Route
Filed Route
Departure Airport
Arrival Airport
Navaid (VOR, NDB)
Fix

Horizontal Profiles

Position Reports

Time Latitude Longitude Heading Altitude Ground
Speed
03-Feb-19 22:55 35.238241 -120.639983 308 215ft 0kts
03-Feb-19 22:56 35.238241 -120.639983 308 215ft 0kts
03-Feb-19 22:57 35.238241 -120.639983 308 215ft 0kts
03-Feb-19 22:58 35.237994 -120.640274 124 216ft 7kts
03-Feb-19 22:59 35.236573 -120.637724 125 216ft 10kts
03-Feb-19 23:00 35.234872 -120.634743 124 215ft 10kts
03-Feb-19 23:01 35.233174 -120.632338 216 215ft 0kts
03-Feb-19 23:02 35.233330 -120.633982 302 216ft 45kts
03-Feb-19 23:03 35.252524 -120.668277 286 1108ft 155kts
03-Feb-19 23:04 35.226085 -120.678767 124 2150ft 157kts
03-Feb-19 23:05 35.212862 -120.626812 102 3155ft 164kts
03-Feb-19 23:06 35.197411 -120.575891 126 4149ft 160kts
03-Feb-19 23:07 35.172113 -120.531338 129 5143ft 159kts
03-Feb-19 23:08 35.146134 -120.486864 130 6143ft 160kts
03-Feb-19 23:09 35.132536 -120.433923 101 7147ft 172kts
03-Feb-19 23:10 35.128497 -120.374308 101 8151ft 177kts
03-Feb-19 23:11 35.124425 -120.314089 102 9131ft 181kts
03-Feb-19 23:12 35.120231 -120.252493 102 10103ft 186kts
03-Feb-19 23:13 35.102274 -120.201657 161 11099ft 160kts
03-Feb-19 23:14 35.060396 -120.172490 157 11504ft 189kts
03-Feb-19 23:15 35.013189 -120.137792 157 11504ft 200kts
03-Feb-19 23:16 34.964726 -120.101883 156 11506ft 202kts
03-Feb-19 23:17 34.917600 -120.067138 156 11508ft 194kts
03-Feb-19 23:18 34.871281 -120.033205 156 11517ft 194kts
03-Feb-19 23:19 34.824412 -119.998909 156 11519ft 194kts
03-Feb-19 23:20 34.777433 -119.964584 156 11521ft 194kts
03-Feb-19 23:21 34.730666 -119.930459 156 11524ft 194kts
03-Feb-19 23:22 34.683955 -119.896423 156 11522ft 195kts
03-Feb-19 23:23 34.636965 -119.862245 155 11021ft 193kts
03-Feb-19 23:24 34.591167 -119.828961 155 10525ft 189kts
03-Feb-19 23:26 34.546068 -119.796234 154 10027ft 186kts
03-Feb-19 23:27 34.505805 -119.757383 125 9528ft 192kts
03-Feb-19 23:28 34.481482 -119.699350 121 9027ft 190kts
03-Feb-19 23:29 34.458017 -119.641802 120 8523ft 187kts
03-Feb-19 23:30 34.435197 -119.585031 120 8018ft 185kts
03-Feb-19 23:31 34.412689 -119.529059 119 7511ft 183kts
03-Feb-19 23:32 34.390425 -119.473819 118 7002ft 180kts
03-Feb-19 23:33 34.367041 -119.415823 113 6500ft 198kts
03-Feb-19 23:34 34.342632 -119.355397 114 6012ft 200kts
03-Feb-19 23:35 34.318160 -119.294962 115 5511ft 198kts
03-Feb-19 23:36 34.293899 -119.235168 115 5009ft 196kts
03-Feb-19 23:37 34.269703 -119.175634 115 4511ft 196kts
03-Feb-19 23:38 34.245808 -119.116707 115 4013ft 194kts
03-Feb-19 23:39 34.222484 -119.059142 114 3503ft 179kts
03-Feb-19 23:40 34.201703 -119.008435 114 3196ft 154kts
03-Feb-19 23:41 34.176838 -118.974015 189 3202ft 145kts
03-Feb-19 23:42 34.173490 -119.012891 297 3194ft 124kts
03-Feb-19 23:43 34.188290 -119.048901 297 2643ft 123kts
03-Feb-19 23:43 34.198294 -119.080766 276 2011ft 120kts
03-Feb-19 23:45 34.199828 -119.127104 271 1250ft 116kts
03-Feb-19 23:46 34.200294 -119.166018 271 623ft 115kts
03-Feb-19 23:46 34.200730 -119.196940 268 92ft 105kts
03-Feb-19 23:47 34.199691 -119.205148 91 40ft 13kts
03-Feb-19 23:49 34.199222 -119.199385 128 45ft 15kts
03-Feb-19 23:50 34.199029 -119.198878 94 45ft 0kts
03-Feb-19 23:56 33.671199 -117.868020 211 59ft 0kts
03-Feb-19 23:57 33.671199 -117.868020 211 59ft 0kts
03-Feb-19 23:58 33.671199 -117.868020 211 59ft 0kts
03-Feb-19 23:59 33.671199 -117.868020 211 59ft 0kts
04-Feb-19 00:00 33.671199 -117.868020 211 59ft 0kts
04-Feb-19 00:01 33.671199 -117.868020 211 59ft 0kts

Navigation Log

Ident Type
Flight plan parsing failed, navigation log unavailable